Terminal Aerodrome Forecast
Issued by NWS Dodge City, KS

Home | Current Version | Previous Version | Text Only | Print | Product List | Glossary On
Versions: 1 2 3 4 5 6 7 8 9 10 11 12 13 14 15 16 17 18 19 20 21 22 23 24 25 26 27 28 29 30 31 32 33 34 35 36 37 38 39 40 41 42
000
FTUS43 KDDC 250432 AAC
TAFDDC
TAF AMD
KDDC 250432Z 2505/2524 VRB15KT P6SM -TSRA OVC060CB
      TEMPO 2506/2508 VRB25G30KT 2SM TSRA BR OVC060CB
     FM250800 05012KT P6SM BKN150
     FM251600 11010KT P6SM SCT060=

USA.gov is the U.S. government's official web portal to all federal, state and local government web resources and services.